Time;durP1;ratioP1;P1;durP2;ratioP2;P2;SDS_P1;SDS_P2;PMS_P1;PMS_P2;Temp;Humidity;BMP_temperature;BMP_pressure;BME280_temperature;BME280_humidity;BME280_pressure;Samples;Min_cycle;Max_cycle;Signal;HPM_P1;HPM_P2
2021/06/10 00:00:15;;;;;;;6.80;4.65;;;19.60;99.90;;;;;;5023417;28;20084;-75
2021/06/10 00:02:41;;;;;;;9.23;4.18;;;19.60;99.90;;;;;;5020513;28;20013;-77
2021/06/10 00:05:09;;;;;;;4.45;3.92;;;19.60;99.90;;;;;;5020212;28;20483;-76
2021/06/10 00:07:35;;;;;;;4.32;3.92;;;19.60;99.90;;;;;;5015523;28;20084;-77
2021/06/10 00:10:01;;;;;;;4.88;4.00;;;19.50;99.90;;;;;;5019955;28;20026;-78
2021/06/10 00:12:26;;;;;;;5.82;4.35;;;19.50;99.90;;;;;;5010012;28;20041;-75
2021/06/10 00:14:52;;;;;;;6.10;4.22;;;19.50;99.90;;;;;;5020563;28;20092;-77
2021/06/10 00:17:18;;;;;;;6.18;4.38;;;19.40;99.90;;;;;;5019474;28;20032;-71
2021/06/10 00:19:44;;;;;;;7.13;5.55;;;19.40;99.90;;;;;;5020410;28;20097;-74
2021/06/10 00:22:10;;;;;;;6.25;5.47;;;19.30;99.90;;;;;;5018042;28;20080;-77
2021/06/10 00:24:35;;;;;;;8.27;5.10;;;19.30;99.90;;;;;;5016126;28;20029;-78
2021/06/10 00:27:01;;;;;;;5.25;4.75;;;19.20;99.90;;;;;;5016786;28;20026;-77
2021/06/10 00:29:28;;;;;;;6.22;5.45;;;19.20;99.90;;;;;;5016571;28;20084;-71
2021/06/10 00:31:54;;;;;;;5.57;4.65;;;19.20;99.90;;;;;;5012828;28;20030;-78
2021/06/10 00:34:21;;;;;;;5.97;5.22;;;19.20;99.90;;;;;;5018358;28;20026;-77
2021/06/10 00:36:46;;;;;;;7.65;4.80;;;19.10;99.90;;;;;;5014026;28;20034;-72
2021/06/10 00:39:12;;;;;;;7.63;5.43;;;19.10;99.90;;;;;;5018013;28;20033;-77
2021/06/10 00:41:38;;;;;;;10.65;4.65;;;19.10;99.90;;;;;;5017772;28;20429;-77
2021/06/10 00:44:07;;;;;;;6.60;4.45;;;19.10;99.90;;;;;;5026897;28;20018;-74
2021/06/10 00:46:33;;;;;;;5.50;5.00;;;19.00;99.90;;;;;;5020179;28;20029;-76
2021/06/10 00:48:59;;;;;;;7.65;5.22;;;19.00;99.90;;;;;;5001599;28;20040;-75
2021/06/10 00:51:25;;;;;;;10.95;5.35;;;19.00;99.90;;;;;;5012975;28;20083;-76
2021/06/10 00:53:50;;;;;;;6.13;5.53;;;19.00;99.90;;;;;;5020223;28;20017;-77
2021/06/10 00:56:17;;;;;;;6.95;5.90;;;18.90;99.90;;;;;;5011459;28;20025;-73
2021/06/10 00:58:43;;;;;;;5.93;5.30;;;18.90;99.90;;;;;;5020205;28;20515;-76
2021/06/10 01:01:09;;;;;;;6.30;5.70;;;18.80;99.90;;;;;;5013653;28;20102;-76
2021/06/10 01:03:35;;;;;;;7.90;5.00;;;18.80;99.90;;;;;;5013902;28;20371;-75
2021/06/10 01:06:26;;;;;;;6.85;6.15;;;18.80;99.90;;;;;;5018783;28;20030;-77
2021/06/10 01:09:08;;;;;;;9.00;6.35;;;18.80;99.90;;;;;;5018078;28;20102;-74
2021/06/10 01:11:48;;;;;;;9.65;5.95;;;18.70;99.90;;;;;;5017115;28;20395;-75
2021/06/10 01:14:26;;;;;;;7.35;5.75;;;18.70;99.90;;;;;;5014102;28;20076;-78
2021/06/10 01:16:53;;;;;;;7.05;5.68;;;18.70;99.90;;;;;;5017212;28;20061;-75
2021/06/10 01:19:39;;;;;;;7.03;5.90;;;18.70;99.90;;;;;;5016964;28;20483;-78
2021/06/10 01:22:25;;;;;;;6.90;6.30;;;18.60;99.90;;;;;;5021764;28;20033;-76
2021/06/10 01:25:15;;;;;;;8.18;6.57;;;18.60;99.90;;;;;;5021033;28;20030;-75
2021/06/10 01:27:47;;;;;;;7.65;6.70;;;18.50;99.90;;;;;;5020972;28;20018;-72
2021/06/10 01:30:17;;;;;;;6.75;6.15;;;18.50;99.90;;;;;;5013526;28;20074;-73
2021/06/10 01:32:52;;;;;;;12.15;6.20;;;18.50;99.90;;;;;;5023547;28;20025;-70
2021/06/10 01:35:19;;;;;;;7.47;6.68;;;18.50;99.90;;;;;;5014622;28;20096;-71
2021/06/10 01:37:45;;;;;;;6.15;5.63;;;18.50;99.90;;;;;;5017664;28;20165;-71
2021/06/10 01:40:12;;;;;;;8.40;5.57;;;18.50;99.90;;;;;;5020717;28;20037;-71
2021/06/10 01:42:39;;;;;;;8.57;6.07;;;18.40;99.90;;;;;;5013759;28;20073;-71
2021/06/10 01:45:08;;;;;;;7.95;5.10;;;18.40;99.90;;;;;;5017731;28;20037;-71
2021/06/10 01:47:40;;;;;;;8.27;6.15;;;18.40;99.90;;;;;;5021726;28;20029;-70
2021/06/10 01:50:08;;;;;;;6.87;6.30;;;18.40;99.90;;;;;;5016759;28;20022;-70
2021/06/10 01:52:35;;;;;;;7.78;7.05;;;18.30;99.90;;;;;;5015171;28;20372;-71
2021/06/10 01:55:02;;;;;;;9.20;6.40;;;18.30;99.90;;;;;;5018750;28;20065;-70
2021/06/10 01:57:30;;;;;;;8.00;7.32;;;18.30;99.90;;;;;;5021082;28;20022;-71
2021/06/10 01:59:56;;;;;;;7.28;6.55;;;18.30;99.90;;;;;;5013265;28;20025;-71
2021/06/10 02:02:22;;;;;;;7.75;6.97;;;18.30;99.90;;;;;;5016874;28;20076;-70
2021/06/10 02:04:49;;;;;;;8.35;7.25;;;18.20;99.90;;;;;;5017010;28;21195;-70
2021/06/10 02:07:15;;;;;;;7.55;6.85;;;18.10;99.90;;;;;;5017940;28;20129;-71
2021/06/10 02:09:42;;;;;;;6.57;5.97;;;18.10;99.90;;;;;;5016427;28;20030;-70
2021/06/10 02:12:09;;;;;;;8.55;7.65;;;18.10;99.90;;;;;;5017944;28;20026;-71
2021/06/10 02:14:35;;;;;;;7.13;6.18;;;18.10;99.90;;;;;;5014729;28;20625;-71
2021/06/10 02:17:00;;;;;;;8.07;7.15;;;18.00;99.90;;;;;;5017325;28;20093;-71
2021/06/10 02:19:26;;;;;;;9.27;7.75;;;18.00;99.90;;;;;;5021318;28;20034;-71
2021/06/10 02:21:52;;;;;;;8.35;7.65;;;18.00;99.90;;;;;;5018766;28;20022;-70
2021/06/10 02:24:18;;;;;;;8.20;7.40;;;18.00;99.90;;;;;;5016189;28;20511;-71
2021/06/10 02:26:44;;;;;;;11.45;7.97;;;17.90;99.90;;;;;;5021029;28;20036;-71
2021/06/10 02:29:10;;;;;;;8.48;7.07;;;17.90;99.90;;;;;;5016569;28;20120;-72
2021/06/10 02:31:37;;;;;;;8.20;7.50;;;17.90;99.90;;;;;;5023286;28;20036;-71
2021/06/10 02:34:06;;;;;;;8.30;7.50;;;17.90;99.90;;;;;;5018673;28;20044;-71
2021/06/10 02:36:33;;;;;;;8.88;8.07;;;17.90;99.90;;;;;;5025244;28;20032;-71
2021/06/10 02:39:11;;;;;;;11.57;8.02;;;17.90;99.90;;;;;;5022353;28;20482;-71
2021/06/10 02:41:46;;;;;;;10.38;8.05;;;17.80;99.90;;;;;;5025363;28;20025;-71
2021/06/10 02:44:12;;;;;;;9.02;8.13;;;17.80;99.90;;;;;;5018141;28;20046;-71
2021/06/10 02:46:41;;;;;;;8.65;7.80;;;17.80;99.90;;;;;;5023767;28;20452;-70
2021/06/10 02:49:07;;;;;;;10.40;8.68;;;17.70;99.90;;;;;;5019989;28;20026;-70
2021/06/10 02:51:33;;;;;;;8.93;8.07;;;17.70;99.90;;;;;;5018910;28;20039;-71
2021/06/10 02:54:05;;;;;;;9.30;8.25;;;17.60;99.90;;;;;;5019810;28;20022;-71
2021/06/10 02:56:31;;;;;;;9.00;7.25;;;17.70;99.90;;;;;;5020217;28;20032;-71
2021/06/10 02:59:00;;;;;;;8.70;7.90;;;17.70;99.90;;;;;;5019909;28;20029;-71
2021/06/10 03:01:27;;;;;;;9.05;8.10;;;17.60;99.90;;;;;;5021057;28;20018;-70
2021/06/10 03:03:53;;;;;;;9.35;8.43;;;17.60;99.90;;;;;;5022110;28;20479;-71
2021/06/10 03:06:21;;;;;;;10.10;7.93;;;17.60;99.90;;;;;;5016791;28;20038;-70
2021/06/10 03:08:50;;;;;;;8.27;7.55;;;17.60;99.90;;;;;;5021105;28;20518;-71
2021/06/10 03:11:17;;;;;;;11.93;8.57;;;17.50;99.90;;;;;;5016821;28;20470;-70
2021/06/10 03:13:43;;;;;;;11.38;8.43;;;17.50;99.90;;;;;;5018478;28;20029;-71
2021/06/10 03:16:10;;;;;;;8.65;7.53;;;17.50;99.90;;;;;;5020103;28;20087;-70
2021/06/10 03:18:37;;;;;;;8.68;7.70;;;17.50;99.90;;;;;;5017312;28;20022;-71
2021/06/10 03:21:03;;;;;;;8.25;7.40;;;17.50;99.90;;;;;;5019466;28;20033;-71
2021/06/10 03:23:29;;;;;;;12.52;7.35;;;17.50;99.90;;;;;;5019687;28;20105;-71
2021/06/10 03:25:58;;;;;;;10.07;7.90;;;17.40;99.90;;;;;;5019471;28;20092;-70
2021/06/10 03:28:25;;;;;;;8.88;7.53;;;17.40;99.90;;;;;;5019358;28;20034;-70
2021/06/10 03:30:51;;;;;;;8.05;6.88;;;17.30;99.90;;;;;;5017064;28;20068;-70
2021/06/10 03:33:17;;;;;;;9.25;7.45;;;17.30;99.90;;;;;;5018323;28;20045;-70
2021/06/10 03:35:44;;;;;;;7.68;7.00;;;17.20;99.90;;;;;;5021804;28;20053;-71
2021/06/10 03:38:13;;;;;;;8.05;7.20;;;17.20;99.90;;;;;;5022863;28;20451;-71
2021/06/10 03:40:39;;;;;;;7.68;6.88;;;17.20;99.90;;;;;;5021825;28;20076;-71
2021/06/10 03:43:05;;;;;;;8.35;6.65;;;17.20;99.90;;;;;;5017396;28;20034;-71
2021/06/10 03:45:32;;;;;;;8.20;7.40;;;17.10;99.90;;;;;;5024799;28;20045;-71
2021/06/10 03:47:58;;;;;;;8.70;7.50;;;17.20;99.90;;;;;;5018244;28;20034;-71
2021/06/10 03:50:35;;;;;;;13.73;9.02;;;17.10;99.90;;;;;;5014587;28;20137;-71
2021/06/10 03:53:01;;;;;;;11.32;8.43;;;17.10;99.90;;;;;;5019125;28;20026;-71
2021/06/10 03:55:27;;;;;;;10.23;8.82;;;17.10;99.90;;;;;;5018344;28;20161;-71
2021/06/10 03:57:52;;;;;;;12.23;8.88;;;17.00;99.90;;;;;;5019245;28;20029;-71
2021/06/10 04:00:18;;;;;;;10.25;9.23;;;17.00;99.90;;;;;;5014722;28;20030;-70
2021/06/10 04:02:44;;;;;;;14.70;10.02;;;17.00;99.90;;;;;;5018941;28;20034;-71
2021/06/10 04:05:09;;;;;;;12.52;9.35;;;17.00;99.90;;;;;;5023105;28;20470;-72
2021/06/10 04:07:36;;;;;;;10.23;8.65;;;17.00;99.90;;;;;;5019234;28;20052;-71
2021/06/10 04:10:02;;;;;;;8.38;7.65;;;17.00;99.90;;;;;;5018777;28;20108;-71
2021/06/10 04:12:28;;;;;;;8.30;7.60;;;17.00;99.90;;;;;;5016419;28;20030;-71
2021/06/10 04:14:53;;;;;;;8.88;7.95;;;17.00;99.90;;;;;;5017215;28;20026;-70
2021/06/10 04:17:19;;;;;;;9.35;8.02;;;17.00;99.90;;;;;;5016975;28;20046;-71
2021/06/10 04:19:45;;;;;;;10.20;7.95;;;17.10;99.90;;;;;;5018586;28;20385;-71
2021/06/10 04:22:11;;;;;;;9.85;7.95;;;17.10;99.90;;;;;;5015654;28;20042;-71
2021/06/10 04:24:36;;;;;;;8.57;7.78;;;17.00;99.90;;;;;;5018919;28;20067;-71
2021/06/10 04:27:03;;;;;;;10.40;8.18;;;17.10;99.90;;;;;;5019206;28;20156;-71
2021/06/10 04:29:28;;;;;;;10.27;7.63;;;17.10;99.90;;;;;;5021500;28;20060;-71
2021/06/10 04:31:54;;;;;;;14.23;9.65;;;17.10;99.90;;;;;;5018788;28;20045;-71
2021/06/10 04:34:20;;;;;;;10.13;9.15;;;17.00;99.90;;;;;;5018531;28;20064;-71
2021/06/10 04:36:45;;;;;;;11.23;8.80;;;17.10;99.90;;;;;;5020449;28;20028;-70
2021/06/10 04:39:11;;;;;;;9.88;8.88;;;17.10;99.90;;;;;;5014204;28;20034;-71
2021/06/10 04:41:37;;;;;;;15.93;8.82;;;17.10;99.90;;;;;;5019587;28;20053;-71
2021/06/10 04:44:03;;;;;;;10.50;9.10;;;17.10;99.90;;;;;;5017655;28;20029;-70
2021/06/10 04:46:29;;;;;;;10.35;8.50;;;17.10;99.90;;;;;;5020562;28;20046;-71
2021/06/10 04:48:56;;;;;;;13.48;8.80;;;17.10;99.90;;;;;;5018370;28;20029;-71
2021/06/10 04:51:24;;;;;;;9.57;8.68;;;17.10;99.90;;;;;;5016808;28;20387;-71
2021/06/10 04:53:49;;;;;;;14.35;9.05;;;17.20;99.90;;;;;;5016316;28;20041;-71
2021/06/10 04:56:17;;;;;;;9.35;8.10;;;17.20;99.90;;;;;;5018001;28;20034;-71
2021/06/10 04:58:43;;;;;;;8.52;7.70;;;17.30;99.90;;;;;;5017899;28;20497;-71
2021/06/10 05:01:09;;;;;;;10.38;9.38;;;17.30;99.90;;;;;;5018754;28;20156;-71
2021/06/10 05:03:34;;;;;;;12.82;10.43;;;17.30;99.90;;;;;;5017867;28;20025;-71
2021/06/10 05:06:00;;;;;;;10.93;8.73;;;17.30;99.90;;;;;;5020897;28;20030;-70
2021/06/10 05:08:25;;;;;;;9.98;8.95;;;17.30;99.90;;;;;;5015738;28;20103;-71
2021/06/10 05:10:51;;;;;;;12.05;10.23;;;17.30;99.90;;;;;;5017868;28;20033;-71
2021/06/10 05:13:16;;;;;;;11.15;9.25;;;17.40;99.90;;;;;;5014535;28;20029;-70
2021/06/10 05:15:42;;;;;;;10.15;9.15;;;17.40;99.90;;;;;;5015348;28;20025;-71
2021/06/10 05:18:08;;;;;;;12.68;10.60;;;17.50;99.90;;;;;;5018300;28;20104;-71
2021/06/10 05:20:33;;;;;;;11.18;10.13;;;17.50;99.90;;;;;;5015755;28;20053;-70
2021/06/10 05:22:59;;;;;;;16.98;10.60;;;17.50;99.90;;;;;;5015117;28;20021;-71
2021/06/10 05:25:24;;;;;;;13.40;9.98;;;17.50;99.90;;;;;;5018651;28;20126;-71
2021/06/10 05:27:50;;;;;;;12.63;10.23;;;17.60;99.90;;;;;;5015161;28;20374;-71
2021/06/10 05:30:16;;;;;;;11.80;10.60;;;17.60;99.90;;;;;;5021803;28;20037;-71
2021/06/10 05:32:42;;;;;;;12.02;9.52;;;17.60;99.90;;;;;;5021163;28;20028;-71
2021/06/10 05:35:08;;;;;;;11.43;8.40;;;17.60;99.90;;;;;;5017273;28;20026;-71
2021/06/10 05:37:33;;;;;;;15.43;10.63;;;17.70;99.90;;;;;;5015952;28;20043;-71
2021/06/10 05:39:59;;;;;;;16.30;10.98;;;17.70;99.90;;;;;;5014036;28;20041;-71
2021/06/10 05:42:24;;;;;;;12.45;11.18;;;17.80;99.90;;;;;;5017034;28;20030;-71
2021/06/10 05:44:50;;;;;;;13.82;11.13;;;17.80;99.90;;;;;;5014964;28;20026;-70
2021/06/10 05:47:16;;;;;;;14.05;12.55;;;17.80;99.90;;;;;;5017808;28;20034;-70
2021/06/10 05:49:41;;;;;;;15.35;11.82;;;17.90;99.90;;;;;;5015955;28;20402;-70
2021/06/10 05:52:07;;;;;;;14.15;10.85;;;17.90;99.90;;;;;;5013946;28;20030;-71
2021/06/10 05:54:32;;;;;;;13.55;11.43;;;17.90;99.90;;;;;;5019428;28;20041;-71
2021/06/10 05:56:59;;;;;;;11.77;9.80;;;18.00;99.90;;;;;;5016159;28;20040;-72
2021/06/10 05:59:25;;;;;;;15.00;10.88;;;18.00;99.90;;;;;;5014444;28;20028;-71
2021/06/10 06:01:51;;;;;;;14.77;10.55;;;18.00;99.90;;;;;;5018580;28;20087;-71
2021/06/10 06:04:17;;;;;;;11.52;9.52;;;18.10;99.90;;;;;;5018046;28;20013;-71
2021/06/10 06:06:44;;;;;;;11.60;10.25;;;18.10;99.90;;;;;;5016137;28;20042;-71
2021/06/10 06:09:09;;;;;;;15.63;10.05;;;18.20;99.90;;;;;;5025257;28;20363;-70
2021/06/10 06:11:35;;;;;;;11.27;9.10;;;18.20;99.90;;;;;;5014932;28;20044;-72
2021/06/10 06:14:08;;;;;;;10.30;9.30;;;18.30;99.90;;;;;;5021049;28;20037;-73
2021/06/10 06:16:40;;;;;;;14.07;9.50;;;18.40;99.90;;;;;;5016667;28;20018;-72
2021/06/10 06:19:06;;;;;;;18.05;13.48;;;18.40;99.90;;;;;;5018315;28;20064;-71
2021/06/10 06:21:33;;;;;;;18.50;12.05;;;18.40;99.90;;;;;;5014031;28;20100;-71
2021/06/10 06:24:00;;;;;;;18.80;13.50;;;18.50;99.90;;;;;;5016779;28;20034;-71
2021/06/10 06:26:25;;;;;;;10.60;8.57;;;18.50;99.90;;;;;;5018180;28;20036;-72
2021/06/10 06:28:54;;;;;;;17.52;13.65;;;18.50;99.90;;;;;;5013869;28;20034;-72
2021/06/10 06:31:20;;;;;;;18.88;15.77;;;18.60;99.90;;;;;;5013925;28;20470;-70
2021/06/10 06:33:46;;;;;;;23.58;13.57;;;18.80;99.90;;;;;;5020561;28;20363;-70
2021/06/10 06:36:12;;;;;;;17.92;14.00;;;18.90;99.90;;;;;;5016137;28;20041;-70
2021/06/10 06:38:37;;;;;;;18.67;13.98;;;19.00;99.90;;;;;;5014483;28;20084;-71
2021/06/10 06:41:05;;;;;;;15.85;13.60;;;19.20;99.90;;;;;;5011519;28;20473;-70
2021/06/10 06:43:31;;;;;;;16.83;12.90;;;19.30;99.90;;;;;;5017193;28;20479;-73
2021/06/10 06:45:57;;;;;;;18.25;15.27;;;19.50;99.90;;;;;;5019617;28;20044;-73
2021/06/10 06:48:23;;;;;;;14.90;12.82;;;19.60;99.90;;;;;;5015724;28;20057;-72
2021/06/10 06:50:49;;;;;;;12.60;9.85;;;19.70;99.90;;;;;;5016846;28;20030;-72
2021/06/10 06:53:14;;;;;;;12.40;10.75;;;19.70;99.90;;;;;;5012128;28;20041;-72
2021/06/10 06:55:40;;;;;;;15.68;10.18;;;19.80;99.90;;;;;;5016274;28;20036;-72
2021/06/10 06:58:06;;;;;;;11.65;10.23;;;19.90;99.90;;;;;;5017395;28;20045;-72
2021/06/10 07:00:32;;;;;;;15.60;13.80;;;20.10;99.90;;;;;;5014484;28;20021;-72
2021/06/10 07:02:57;;;;;;;19.42;14.68;;;20.20;99.90;;;;;;5019804;28;20496;-71
2021/06/10 07:05:23;;;;;;;16.10;13.20;;;20.30;99.90;;;;;;5015945;28;20069;-72
2021/06/10 07:07:49;;;;;;;15.73;14.02;;;20.40;99.90;;;;;;5018414;28;20426;-72
2021/06/10 07:10:15;;;;;;;15.63;13.73;;;20.60;99.90;;;;;;5020300;28;20038;-72
2021/06/10 07:12:40;;;;;;;15.98;13.45;;;20.70;99.90;;;;;;5014908;28;20025;-73
2021/06/10 07:15:07;;;;;;;14.82;12.95;;;20.90;99.90;;;;;;5017983;28;20025;-71
2021/06/10 07:17:32;;;;;;;17.98;13.07;;;21.00;99.90;;;;;;5015019;28;20030;-73
2021/06/10 07:20:00;;;;;;;13.85;12.45;;;21.10;99.90;;;;;;5007176;28;20041;-72
2021/06/10 07:22:29;;;;;;;18.48;13.23;;;21.30;99.90;;;;;;5015313;28;20452;-76
2021/06/10 07:24:54;;;;;;;14.02;12.20;;;21.30;99.90;;;;;;5020392;28;20069;-75
2021/06/10 07:27:20;;;;;;;14.75;12.95;;;21.40;99.90;;;;;;5016984;28;20065;-76
2021/06/10 07:29:46;;;;;;;15.50;13.27;;;21.40;99.90;;;;;;5021385;28;20030;-76
2021/06/10 07:32:12;;;;;;;13.48;11.25;;;21.50;99.90;;;;;;5017215;28;20025;-76
2021/06/10 07:34:38;;;;;;;17.35;11.90;;;21.60;99.90;;;;;;5020179;28;20387;-76
2021/06/10 07:37:07;;;;;;;16.10;10.57;;;21.70;99.90;;;;;;5020434;28;20029;-77
2021/06/10 07:39:35;;;;;;;12.63;9.68;;;21.80;99.90;;;;;;5014842;28;20051;-77
2021/06/10 07:42:01;;;;;;;13.13;9.77;;;21.90;99.90;;;;;;5017085;28;20045;-76
2021/06/10 07:44:27;;;;;;;11.32;10.23;;;22.00;99.90;;;;;;5019364;28;20104;-76
2021/06/10 07:46:53;;;;;;;13.00;9.80;;;22.30;99.90;;;;;;5017235;28;20129;-76
2021/06/10 07:49:19;;;;;;;11.65;10.20;;;22.50;99.90;;;;;;5012507;28;20523;-75
2021/06/10 07:51:45;;;;;;;14.55;10.93;;;22.60;99.90;;;;;;5016948;28;20026;-74
2021/06/10 07:54:10;;;;;;;15.90;10.32;;;22.60;99.90;;;;;;5020861;28;20481;-77
2021/06/10 07:56:36;;;;;;;12.93;11.05;;;22.70;99.90;;;;;;5019404;28;20034;-77
2021/06/10 07:59:03;;;;;;;16.05;11.35;;;22.80;99.90;;;;;;5014472;28;20471;-77
2021/06/10 08:01:29;;;;;;;15.02;10.77;;;22.80;99.90;;;;;;5019485;28;20034;-74
2021/06/10 08:03:55;;;;;;;12.73;10.20;;;22.80;99.90;;;;;;5016054;28;20025;-75
2021/06/10 08:06:20;;;;;;;12.77;9.90;;;22.70;99.90;;;;;;5017103;28;20120;-76
2021/06/10 08:08:49;;;;;;;11.52;9.38;;;22.80;99.90;;;;;;5017113;28;20120;-76
2021/06/10 08:11:15;;;;;;;17.15;10.30;;;23.00;99.90;;;;;;5018898;28;20033;-76
2021/06/10 08:13:41;;;;;;;13.65;10.60;;;23.10;99.90;;;;;;5016740;28;20474;-73
2021/06/10 08:16:07;;;;;;;14.63;11.23;;;23.20;99.90;;;;;;5023847;28;20033;-74
2021/06/10 08:18:33;;;;;;;13.98;11.25;;;23.20;99.90;;;;;;5022370;28;20047;-75
2021/06/10 08:21:00;;;;;;;12.95;9.68;;;23.30;99.90;;;;;;5010886;28;20072;-74
2021/06/10 08:23:27;;;;;;;13.07;9.27;;;23.50;99.90;;;;;;5017419;28;20093;-76
2021/06/10 08:25:57;;;;;;;17.27;9.23;;;23.60;99.90;;;;;;5020621;28;20533;-73
2021/06/10 08:28:24;;;;;;;12.25;9.13;;;23.70;99.90;;;;;;5014639;28;20014;-76
2021/06/10 08:30:50;;;;;;;10.55;8.60;;;23.90;99.90;;;;;;5017584;28;20391;-77
2021/06/10 08:33:16;;;;;;;13.43;10.05;;;24.00;99.90;;;;;;5016746;28;20020;-77
2021/06/10 08:35:42;;;;;;;12.25;9.65;;;24.10;99.90;;;;;;5015254;28;20021;-77
2021/06/10 08:38:09;;;;;;;13.23;8.15;;;24.10;99.90;;;;;;5024550;28;20505;-76
2021/06/10 08:40:37;;;;;;;11.02;6.82;;;24.10;99.90;;;;;;5017792;28;20026;-75
2021/06/10 08:43:03;;;;;;;11.23;6.82;;;24.20;99.90;;;;;;5022910;28;20021;-76
2021/06/10 08:45:30;;;;;;;7.28;6.05;;;24.40;99.90;;;;;;5016446;28;20045;-75
2021/06/10 08:47:57;;;;;;;9.55;5.85;;;24.50;99.90;;;;;;5018884;28;20025;-76
2021/06/10 08:50:24;;;;;;;8.40;4.90;;;24.50;99.90;;;;;;5020159;28;20378;-77
2021/06/10 08:52:58;;;;;;;8.23;5.50;;;24.60;99.90;;;;;;5019234;28;20138;-75
2021/06/10 08:55:25;;;;;;;8.45;5.32;;;24.80;99.90;;;;;;5018212;28;20053;-73
2021/06/10 08:57:51;;;;;;;7.18;6.43;;;24.90;99.90;;;;;;5019482;28;20497;-77
2021/06/10 09:00:20;;;;;;;7.50;5.78;;;25.00;99.70;;;;;;5019848;28;20025;-77
2021/06/10 09:02:53;;;;;;;5.82;5.22;;;25.10;99.90;;;;;;5018495;28;20040;-75
2021/06/10 09:05:20;;;;;;;5.47;5.00;;;25.00;99.90;;;;;;5021732;28;20045;-77
2021/06/10 09:07:57;;;;;;;7.35;5.28;;;25.20;99.80;;;;;;5018551;28;20429;-76
2021/06/10 09:10:28;;;;;;;8.60;4.93;;;25.20;99.50;;;;;;5014032;28;20030;-77
2021/06/10 09:12:57;;;;;;;10.13;6.07;;;25.40;99.90;;;;;;5017646;28;20442;-76
2021/06/10 09:15:28;;;;;;;6.30;5.53;;;25.40;99.90;;;;;;5022654;28;20021;-74
2021/06/10 09:17:55;;;;;;;9.95;6.10;;;25.50;99.10;;;;;;5015428;28;20061;-77
2021/06/10 09:20:27;;;;;;;7.00;5.70;;;25.70;99.40;;;;;;5018315;28;20045;-77
2021/06/10 09:23:15;;;;;;;7.10;4.25;;;25.80;99.90;;;;;;5017464;28;20018;-77
2021/06/10 09:25:42;;;;;;;8.30;5.28;;;25.90;99.90;;;;;;5013008;28;20049;-72
2021/06/10 09:28:08;;;;;;;5.68;4.32;;;26.20;99.20;;;;;;5014282;28;20407;-78
2021/06/10 09:30:40;;;;;;;5.05;4.35;;;26.20;98.70;;;;;;5015858;28;20034;-77
2021/06/10 09:33:12;;;;;;;6.22;4.75;;;26.40;99.20;;;;;;5018019;28;20032;-77
2021/06/10 09:35:40;;;;;;;4.93;4.03;;;26.20;98.60;;;;;;5016456;28;20117;-74
2021/06/10 09:38:08;;;;;;;5.55;3.80;;;26.30;98.60;;;;;;5017930;28;20159;-78
2021/06/10 09:40:34;;;;;;;6.07;3.22;;;26.40;98.40;;;;;;5014925;28;20033;-76
2021/06/10 09:43:00;;;;;;;6.95;3.45;;;26.50;98.00;;;;;;5013278;28;20029;-76
2021/06/10 09:45:29;;;;;;;6.85;3.80;;;26.60;97.10;;;;;;5020212;28;20478;-78
2021/06/10 09:47:59;;;;;;;4.63;3.20;;;26.80;97.80;;;;;;5013689;28;20356;-75
2021/06/10 09:50:37;;;;;;;5.55;3.60;;;26.70;97.00;;;;;;5012754;28;20030;-78
2021/06/10 09:53:13;;;;;;;4.20;3.78;;;26.70;98.40;;;;;;5018030;28;20025;-75
2021/06/10 09:55:45;;;;;;;5.00;3.97;;;26.90;97.40;;;;;;5013809;28;20022;-79
2021/06/10 09:58:14;;;;;;;3.92;3.05;;;27.00;96.80;;;;;;5014481;28;20149;-77
2021/06/10 10:00:45;;;;;;;4.82;4.03;;;27.10;97.60;;;;;;5012629;28;20025;-78
2021/06/10 10:03:29;;;;;;;6.13;4.13;;;27.30;97.90;;;;;;5018491;28;20100;-80
2021/06/10 10:05:58;;;;;;;5.30;4.38;;;27.30;96.40;;;;;;5018655;28;20045;-78
2021/06/10 10:08:28;;;;;;;5.78;5.28;;;27.30;97.40;;;;;;5015311;28;20025;-79
2021/06/10 10:10:58;;;;;;;6.28;4.50;;;27.00;96.90;;;;;;5012513;28;20075;-79
2021/06/10 10:13:28;;;;;;;4.45;3.85;;;27.10;96.70;;;;;;5018617;28;20026;-78
2021/06/10 10:15:57;;;;;;;4.13;3.25;;;27.30;97.60;;;;;;5018804;28;20021;-77
2021/06/10 10:18:23;;;;;;;4.47;4.07;;;27.50;96.70;;;;;;5016551;28;20048;-77
2021/06/10 10:20:48;;;;;;;4.70;3.90;;;27.50;96.10;;;;;;5015852;28;20049;-75
2021/06/10 10:23:14;;;;;;;11.10;4.00;;;27.50;96.30;;;;;;5015721;28;20422;-76
2021/06/10 10:25:41;;;;;;;7.90;3.65;;;27.40;95.60;;;;;;5016332;28;20026;-78
2021/06/10 10:28:09;;;;;;;4.10;3.30;;;27.00;94.20;;;;;;5016819;28;20025;-76
2021/06/10 10:30:39;;;;;;;4.13;2.92;;;27.00;95.40;;;;;;5014519;28;20034;-77
2021/06/10 10:33:14;;;;;;;6.30;3.80;;;27.20;94.50;;;;;;5012559;28;20030;-76
2021/06/10 10:35:47;;;;;;;4.57;4.05;;;27.40;95.40;;;;;;5012654;28;20034;-77
2021/06/10 10:38:15;;;;;;;5.88;4.57;;;27.60;96.10;;;;;;5016511;28;20529;-77
2021/06/10 10:40:50;;;;;;;4.65;4.25;;;27.70;96.40;;;;;;5015519;28;20108;-75
2021/06/10 10:43:15;;;;;;;4.57;4.18;;;27.80;93.90;;;;;;5016947;28;20021;-77
2021/06/10 10:45:44;;;;;;;7.80;3.95;;;27.60;93.80;;;;;;5021441;28;20064;-78
2021/06/10 10:48:11;;;;;;;4.82;4.32;;;27.70;94.70;;;;;;5019369;28;20026;-78
2021/06/10 10:50:48;;;;;;;6.38;5.68;;;27.90;95.10;;;;;;5018850;28;20033;-74
2021/06/10 10:53:19;;;;;;;6.90;5.15;;;28.00;92.50;;;;;;5021144;28;20441;-74
2021/06/10 10:56:06;;;;;;;4.88;4.05;;;28.10;93.90;;;;;;5023659;28;20112;-77
2021/06/10 10:58:32;;;;;;;7.05;4.25;;;28.20;92.80;;;;;;5019795;28;20120;-75
2021/06/10 11:01:08;;;;;;;3.53;3.22;;;28.30;92.30;;;;;;5020990;28;20129;-77
2021/06/10 11:03:39;;;;;;;3.67;3.25;;;28.30;93.10;;;;;;5021701;28;20132;-76
2021/06/10 11:06:26;;;;;;;3.40;3.10;;;28.40;91.50;;;;;;5021039;28;20033;-77
2021/06/10 11:09:12;;;;;;;6.05;3.95;;;28.50;90.90;;;;;;5024100;28;20430;-77
2021/06/10 11:11:57;;;;;;;4.18;3.83;;;28.60;90.60;;;;;;5020365;28;20421;-77
2021/06/10 11:14:47;;;;;;;4.00;3.30;;;28.70;90.00;;;;;;5025344;28;20036;-76
2021/06/10 11:17:18;;;;;;;3.20;3.00;;;28.80;91.50;;;;;;5016726;28;20112;-77
2021/06/10 11:20:02;;;;;;;3.45;3.13;;;28.80;88.20;;;;;;5016407;28;20033;-77
2021/06/10 11:22:39;;;;;;;3.40;2.65;;;28.80;87.40;;;;;;5017604;28;20649;-76
2021/06/10 11:25:26;;;;;;;4.35;2.70;;;28.70;84.40;;;;;;5020259;28;20033;-73
2021/06/10 11:27:54;;;;;;;3.08;2.30;;;28.80;89.20;;;;;;5021875;28;20037;-77
2021/06/10 11:30:26;;;;;;;3.40;2.00;;;28.80;86.40;;;;;;5017912;28;20041;-74
2021/06/10 11:33:09;;;;;;;3.63;2.00;;;29.00;85.40;;;;;;5019322;28;20026;-74
2021/06/10 11:35:40;;;;;;;3.67;1.83;;;29.10;85.60;;;;;;5017539;28;20112;-72
2021/06/10 11:38:21;;;;;;;5.17;2.70;;;29.20;84.80;;;;;;5015953;28;20490;-78
2021/06/10 11:41:03;;;;;;;3.08;1.75;;;29.30;79.80;;;;;;5016524;28;20680;-77
2021/06/10 11:43:30;;;;;;;2.17;1.65;;;29.20;79.00;;;;;;5018312;28;20018;-78
2021/06/10 11:46:04;;;;;;;2.67;1.70;;;29.10;78.40;;;;;;5015535;28;20037;-78
2021/06/10 11:48:50;;;;;;;3.67;1.90;;;29.20;77.90;;;;;;5016399;28;20491;-78
2021/06/10 11:51:18;;;;;;;5.55;1.65;;;29.40;78.10;;;;;;5020045;28;20029;-76
2021/06/10 11:53:44;;;;;;;4.53;1.60;;;29.50;76.00;;;;;;5017396;28;20069;-77
2021/06/10 11:56:10;;;;;;;2.50;1.73;;;29.60;76.90;;;;;;5018037;28;20060;-77
2021/06/10 11:58:35;;;;;;;2.95;2.15;;;29.70;74.10;;;;;;5017227;28;20475;-74
2021/06/10 12:01:10;;;;;;;1.80;1.52;;;29.70;71.10;;;;;;5015460;28;20026;-70
2021/06/10 12:03:37;;;;;;;3.28;1.60;;;29.70;73.10;;;;;;5020517;28;20020;-75
2021/06/10 12:06:03;;;;;;;2.08;1.77;;;29.70;73.30;;;;;;5018211;28;20060;-71
2021/06/10 12:08:32;;;;;;;2.45;2.00;;;29.70;81.20;;;;;;5015226;28;20418;-72
2021/06/10 12:11:00;;;;;;;2.63;2.13;;;29.40;68.60;;;;;;5016980;28;20056;-71
2021/06/10 12:13:31;;;;;;;3.67;2.00;;;29.40;72.90;;;;;;5015233;28;20018;-70
2021/06/10 12:15:59;;;;;;;2.67;2.47;;;29.60;73.10;;;;;;5020934;28;20029;-71
2021/06/10 12:18:25;;;;;;;2.72;2.00;;;29.70;72.70;;;;;;5019880;28;20036;-73
2021/06/10 12:20:53;;;;;;;2.35;2.08;;;29.70;72.40;;;;;;5014277;28;20425;-72
2021/06/10 12:23:22;;;;;;;3.10;1.90;;;29.80;76.00;;;;;;5015304;28;20410;-72
2021/06/10 12:25:56;;;;;;;3.10;2.38;;;29.90;75.30;;;;;;5018525;28;20037;-72
2021/06/10 12:28:45;;;;;;;3.40;1.70;;;29.80;72.60;;;;;;5018966;28;20034;-73
2021/06/10 12:31:34;;;;;;;5.00;2.45;;;29.80;73.70;;;;;;5016086;28;20124;-71
2021/06/10 12:34:05;;;;;;;3.28;1.85;;;29.80;67.50;;;;;;5021136;28;20049;-72
2021/06/10 12:36:30;;;;;;;3.00;2.00;;;29.90;65.80;;;;;;5016727;28;20493;-71
2021/06/10 12:39:11;;;;;;;3.13;1.70;;;30.00;66.40;;;;;;5014608;28;20029;-71
2021/06/10 12:41:47;;;;;;;2.22;2.13;;;30.10;68.20;;;;;;5016934;28;20025;-71
2021/06/10 12:44:14;;;;;;;3.05;2.05;;;30.10;69.10;;;;;;5015961;28;20018;-70
2021/06/10 12:46:51;;;;;;;2.50;2.05;;;30.10;70.50;;;;;;5017779;28;20152;-71